Time;durP1;ratioP1;P1;durP2;ratioP2;P2;SDS_P1;SDS_P2;PMS_P1;PMS_P2;Temp;Humidity;BMP_temperature;BMP_pressure;BME280_temperature;BME280_humidity;BME280_pressure;Samples;Min_cycle;Max_cycle;Signal;HPM_P1;HPM_P2
2021/05/02 00:01:18;;;;;;;9.55;3.58;;;17.10;99.90;;;;;;1735703;82;21170;-80
2021/05/02 00:03:47;;;;;;;11.12;3.50;;;17.00;99.90;;;;;;1736008;81;21324;-80
2021/05/02 00:06:16;;;;;;;16.93;3.98;;;16.90;99.90;;;;;;1735951;83;21292;-80
2021/05/02 00:08:45;;;;;;;12.35;3.67;;;16.90;99.90;;;;;;1735811;83;21316;-80
2021/05/02 00:11:13;;;;;;;12.20;4.03;;;16.90;99.90;;;;;;1735668;83;21166;-80
2021/05/02 00:13:42;;;;;;;14.87;3.47;;;17.00;99.90;;;;;;1735575;83;21194;-80
2021/05/02 00:16:10;;;;;;;10.13;2.85;;;16.90;99.90;;;;;;1735600;81;21161;-80
2021/05/02 00:18:38;;;;;;;15.43;3.45;;;16.90;99.90;;;;;;1735587;83;21154;-81
2021/05/02 00:21:12;;;;;;;12.98;3.12;;;16.80;99.90;;;;;;1735566;82;21173;-80
2021/05/02 00:23:42;;;;;;;11.08;2.90;;;16.80;99.90;;;;;;1735784;83;21309;-81
2021/05/02 00:26:11;;;;;;;11.35;3.20;;;16.80;99.90;;;;;;1735754;82;21311;-81
2021/05/02 00:28:44;;;;;;;9.98;2.70;;;16.80;99.90;;;;;;1735757;82;21316;-81
2021/05/02 00:31:13;;;;;;;11.22;3.15;;;16.80;99.90;;;;;;1735784;83;21190;-80
2021/05/02 00:33:43;;;;;;;11.12;3.15;;;16.90;99.90;;;;;;1731701;82;21723;-80
2021/05/02 00:36:12;;;;;;;10.53;3.22;;;16.90;99.90;;;;;;1727354;83;21179;-81
2021/05/02 00:38:42;;;;;;;11.75;3.52;;;17.00;99.90;;;;;;1727277;83;21292;-81
2021/05/02 00:41:15;;;;;;;13.38;3.65;;;17.00;99.90;;;;;;1727440;83;21158;-81
2021/05/02 00:44:03;;;;;;;12.40;3.65;;;17.00;99.90;;;;;;1727557;83;21119;-80
2021/05/02 00:46:50;;;;;;;12.40;3.75;;;17.00;99.90;;;;;;1727464;83;21162;-81
2021/05/02 00:49:37;;;;;;;15.10;3.40;;;17.00;99.90;;;;;;1727111;83;21127;-82
2021/05/02 00:52:13;;;;;;;12.47;3.17;;;16.90;99.90;;;;;;1726841;83;21155;-82
2021/05/02 00:54:52;;;;;;;9.98;3.25;;;16.90;99.90;;;;;;1727357;83;21174;-81
2021/05/02 00:57:30;;;;;;;9.50;3.05;;;16.80;99.90;;;;;;1727094;82;21707;-81
2021/05/02 01:00:10;;;;;;;6.83;2.72;;;16.80;99.90;;;;;;1727553;83;21123;-81
2021/05/02 01:02:42;;;;;;;7.83;3.02;;;16.70;99.90;;;;;;1727271;83;21297;-80
2021/05/02 01:05:12;;;;;;;9.45;2.98;;;16.60;99.90;;;;;;1727530;83;21123;-82
2021/05/02 01:07:43;;;;;;;11.70;2.67;;;16.60;99.90;;;;;;1727275;83;21300;-81
2021/05/02 01:10:16;;;;;;;9.13;2.80;;;16.60;99.90;;;;;;1727514;83;21166;-81
2021/05/02 01:12:49;;;;;;;10.98;2.70;;;16.60;99.90;;;;;;1727457;83;21585;-81
2021/05/02 01:15:23;;;;;;;8.20;2.60;;;16.60;99.90;;;;;;1727373;83;21142;-81
2021/05/02 01:18:00;;;;;;;13.08;3.02;;;16.60;99.90;;;;;;1727441;83;21292;-81
2021/05/02 01:20:31;;;;;;;14.15;3.33;;;16.60;99.90;;;;;;1725745;82;21154;-80
2021/05/02 01:23:05;;;;;;;8.85;2.87;;;16.70;99.90;;;;;;1727556;83;21158;-81
2021/05/02 01:25:33;;;;;;;8.80;2.92;;;16.60;99.90;;;;;;1727345;83;21629;-81
2021/05/02 01:28:04;;;;;;;13.35;3.00;;;16.60;99.90;;;;;;1727304;83;21920;-81
2021/05/02 01:30:33;;;;;;;13.83;3.35;;;16.70;99.90;;;;;;1727271;83;21182;-80
2021/05/02 01:33:00;;;;;;;10.10;3.10;;;16.70;99.90;;;;;;1727336;81;21153;-80
2021/05/02 01:35:28;;;;;;;9.45;2.77;;;16.60;99.90;;;;;;1727842;83;21196;-81
2021/05/02 01:37:57;;;;;;;8.90;2.98;;;16.60;99.90;;;;;;1727233;82;21308;-81
2021/05/02 01:40:24;;;;;;;10.30;3.33;;;16.60;99.90;;;;;;1727303;83;21158;-81
2021/05/02 01:42:52;;;;;;;11.83;3.20;;;16.60;99.90;;;;;;1727324;83;21170;-80
2021/05/02 01:45:19;;;;;;;12.40;2.83;;;16.60;99.90;;;;;;1727328;83;21178;-81
2021/05/02 01:47:59;;;;;;;11.45;2.95;;;16.50;99.90;;;;;;1727385;83;21186;-80
2021/05/02 01:50:28;;;;;;;8.73;2.95;;;16.50;99.90;;;;;;1727262;82;21119;-81
2021/05/02 01:52:55;;;;;;;14.13;3.50;;;16.40;99.90;;;;;;1727416;83;21170;-81
2021/05/02 01:55:24;;;;;;;8.33;2.80;;;16.40;99.90;;;;;;1727415;83;21186;-81
2021/05/02 01:57:53;;;;;;;13.25;2.90;;;16.40;99.90;;;;;;1727217;83;21305;-81
2021/05/02 02:00:27;;;;;;;11.35;2.90;;;16.40;99.90;;;;;;1727488;83;21573;-81
2021/05/02 02:02:59;;;;;;;12.13;3.37;;;16.50;99.90;;;;;;1727414;83;21572;-81
2021/05/02 02:05:30;;;;;;;11.93;3.42;;;16.50;99.90;;;;;;1727285;83;21159;-81
2021/05/02 02:08:02;;;;;;;8.50;2.55;;;16.60;99.90;;;;;;1727294;83;21290;-81
2021/05/02 02:10:32;;;;;;;14.55;2.80;;;16.60;99.90;;;;;;1727383;83;21297;-81
2021/05/02 02:13:03;;;;;;;10.45;2.90;;;16.60;99.90;;;;;;1727271;82;21336;-80
2021/05/02 02:15:31;;;;;;;10.18;2.90;;;16.60;99.90;;;;;;1727408;82;21299;-80
2021/05/02 02:18:00;;;;;;;10.60;3.52;;;16.60;99.90;;;;;;1727473;83;21195;-80
2021/05/02 02:20:29;;;;;;;12.95;5.10;;;16.70;99.90;;;;;;1727571;83;21158;-80
2021/05/02 02:23:08;;;;;;;9.58;4.00;;;16.70;99.90;;;;;;1727209;83;21159;-81
2021/05/02 02:25:38;;;;;;;12.90;4.20;;;16.70;99.90;;;;;;1727224;83;21284;-81
2021/05/02 02:28:13;;;;;;;13.80;4.28;;;16.70;99.90;;;;;;1727903;83;21143;-80
2021/05/02 02:30:45;;;;;;;11.60;4.55;;;16.80;99.90;;;;;;1727616;83;21170;-80
2021/05/02 02:33:14;;;;;;;11.55;3.90;;;16.80;99.90;;;;;;1727721;81;21182;-80
2021/05/02 02:35:50;;;;;;;11.38;4.15;;;16.70;99.90;;;;;;1736024;83;21161;-81
2021/05/02 02:38:22;;;;;;;12.63;4.60;;;16.60;99.90;;;;;;1736116;82;21312;-81
2021/05/02 02:40:54;;;;;;;10.82;3.87;;;16.60;99.90;;;;;;1735875;82;21178;-81
2021/05/02 02:43:31;;;;;;;8.60;3.67;;;16.60;99.90;;;;;;1735864;83;21174;-81
2021/05/02 02:46:05;;;;;;;9.33;3.45;;;16.50;99.90;;;;;;1735784;83;21718;-81
2021/05/02 02:48:36;;;;;;;10.38;3.42;;;16.50;99.90;;;;;;1735842;83;21691;-81
2021/05/02 02:51:05;;;;;;;14.20;3.90;;;16.50;99.90;;;;;;1735759;82;21297;-81
2021/05/02 02:53:34;;;;;;;10.10;3.55;;;16.50;99.90;;;;;;1735846;82;21300;-81
2021/05/02 02:56:09;;;;;;;9.50;3.90;;;16.60;99.90;;;;;;1735659;82;21143;-81
2021/05/02 02:58:45;;;;;;;10.85;3.62;;;16.60;99.90;;;;;;1736147;83;21145;-81
2021/05/02 03:01:13;;;;;;;;;;;16.60;99.90;;;;;;1738034;82;21159;-82
2021/05/02 03:03:44;;;;;;;12.70;3.22;;;16.70;99.90;;;;;;1735923;83;20179;-81
2021/05/02 03:06:12;;;;;;;16.23;3.40;;;16.60;99.90;;;;;;1735835;83;21683;-81
2021/05/02 03:08:41;;;;;;;12.18;3.33;;;16.70;99.90;;;;;;1735714;82;21284;-81
2021/05/02 03:11:09;;;;;;;12.70;3.30;;;16.80;99.90;;;;;;1735635;83;21304;-81
2021/05/02 03:13:37;;;;;;;16.57;3.98;;;16.90;99.90;;;;;;1735940;83;21158;-82
2021/05/02 03:16:05;;;;;;;10.80;3.40;;;16.90;99.90;;;;;;1735744;83;21711;-81
2021/05/02 03:18:57;;;;;;;8.68;3.50;;;16.90;99.90;;;;;;1735705;82;21299;-82
2021/05/02 03:21:36;;;;;;;11.20;3.67;;;16.90;99.90;;;;;;1735934;82;21280;-82
2021/05/02 03:24:08;;;;;;;12.43;3.65;;;17.00;99.90;;;;;;1734684;82;21288;-82
2021/05/02 03:26:38;;;;;;;18.00;4.05;;;17.00;99.90;;;;;;1735722;82;21595;-81
2021/05/02 03:29:09;;;;;;;10.55;3.67;;;16.90;99.90;;;;;;1735651;82;21169;-82
2021/05/02 03:31:40;;;;;;;14.87;4.30;;;16.80;99.90;;;;;;1735857;83;21300;-81
2021/05/02 03:34:11;;;;;;;12.98;4.15;;;16.60;99.90;;;;;;1733420;83;21273;-82
2021/05/02 03:36:51;;;;;;;15.28;4.20;;;16.50;99.90;;;;;;1727588;83;21154;-82
2021/05/02 03:39:19;;;;;;;11.20;3.90;;;16.50;99.90;;;;;;1727394;83;21284;-81
2021/05/02 03:41:47;;;;;;;10.25;3.85;;;16.50;99.90;;;;;;1727310;83;21151;-81
2021/05/02 03:44:14;;;;;;;7.22;2.92;;;16.50;99.90;;;;;;1727612;83;21175;-82
2021/05/02 03:46:42;;;;;;;7.17;2.70;;;16.40;99.90;;;;;;1727295;83;21167;-82
2021/05/02 03:49:10;;;;;;;8.33;3.55;;;16.40;99.90;;;;;;1727270;83;21164;-82
2021/05/02 03:51:40;;;;;;;12.98;3.55;;;16.40;99.90;;;;;;1727389;83;21589;-82
2021/05/02 03:54:08;;;;;;;13.50;3.27;;;16.50;99.90;;;;;;1727565;83;21158;-82
2021/05/02 03:56:43;;;;;;;17.48;3.12;;;16.50;99.90;;;;;;1727664;83;21150;-81
2021/05/02 03:59:16;;;;;;;11.65;3.15;;;16.50;99.90;;;;;;1727382;83;21561;-82
2021/05/02 04:02:00;;;;;;;8.60;3.00;;;16.50;99.90;;;;;;1727392;83;21163;-81
2021/05/02 04:04:33;;;;;;;10.28;3.25;;;16.50;99.90;;;;;;1727303;83;21146;-81
2021/05/02 04:07:06;;;;;;;13.78;3.37;;;16.60;99.90;;;;;;1726820;82;21154;-82
2021/05/02 04:09:35;;;;;;;13.55;3.90;;;16.60;99.90;;;;;;1727261;83;21187;-81
2021/05/02 04:12:05;;;;;;;12.75;3.52;;;16.60;99.90;;;;;;1727399;83;21585;-81
2021/05/02 04:14:33;;;;;;;11.73;3.55;;;16.50;99.90;;;;;;1727596;83;21186;-81
2021/05/02 04:17:06;;;;;;;15.95;3.58;;;16.50;99.90;;;;;;1727284;83;21305;-81
2021/05/02 04:19:39;;;;;;;16.48;3.60;;;16.50;99.90;;;;;;1727371;83;21625;-82
2021/05/02 04:22:10;;;;;;;13.50;3.67;;;16.50;99.90;;;;;;1727768;83;21162;-81
2021/05/02 04:24:38;;;;;;;13.32;3.60;;;16.50;99.90;;;;;;1727667;83;21115;-81
2021/05/02 04:27:07;;;;;;;10.35;3.58;;;16.50;99.90;;;;;;1727361;82;21576;-82
2021/05/02 04:29:37;;;;;;;11.60;3.62;;;16.50;99.90;;;;;;1727803;83;21139;-81
2021/05/02 04:32:05;;;;;;;14.53;3.52;;;16.50;99.90;;;;;;1727370;83;21178;-81
2021/05/02 04:34:33;;;;;;;12.98;2.90;;;16.40;99.90;;;;;;1729865;81;21146;-79
2021/05/02 04:37:01;;;;;;;9.45;2.90;;;16.40;99.90;;;;;;1735780;83;21147;-81
2021/05/02 04:39:29;;;;;;;11.45;3.12;;;16.40;99.90;;;;;;1735856;81;21323;-81
2021/05/02 04:41:57;;;;;;;12.70;2.90;;;16.50;99.90;;;;;;1735591;82;21169;-80
2021/05/02 04:44:26;;;;;;;9.80;2.77;;;16.50;99.90;;;;;;1735661;83;21726;-81
2021/05/02 04:46:54;;;;;;;20.97;3.30;;;16.70;99.90;;;;;;1735769;83;21170;-81
2021/05/02 04:49:23;;;;;;;11.73;3.35;;;16.80;99.90;;;;;;1736017;83;21190;-81
2021/05/02 04:51:50;;;;;;;16.00;3.20;;;16.80;99.90;;;;;;1735979;83;21308;-82
2021/05/02 04:54:20;;;;;;;13.13;3.72;;;16.80;99.90;;;;;;1735947;83;21300;-81
2021/05/02 04:56:48;;;;;;;11.90;3.45;;;16.80;99.90;;;;;;1735649;83;21715;-81
2021/05/02 04:59:16;;;;;;;8.80;4.17;;;16.90;99.90;;;;;;1735833;82;21296;-82
2021/05/02 05:01:44;;;;;;;9.90;3.90;;;16.80;99.90;;;;;;1735738;82;21284;-81
2021/05/02 05:04:14;;;;;;;12.78;4.90;;;16.90;99.90;;;;;;1735927;82;21162;-82
2021/05/02 05:06:42;;;;;;;13.90;5.45;;;17.00;99.90;;;;;;1735549;82;21173;-79
2021/05/02 05:09:10;;;;;;;11.25;5.03;;;17.00;99.90;;;;;;1735681;81;21303;-82
2021/05/02 05:11:37;;;;;;;13.20;5.03;;;17.10;99.90;;;;;;1735820;82;21316;-82
2021/05/02 05:14:05;;;;;;;14.20;5.20;;;17.10;99.90;;;;;;1735647;83;21601;-82
2021/05/02 05:16:33;;;;;;;13.70;5.50;;;17.10;99.90;;;;;;1735716;83;21312;-81
2021/05/02 05:19:01;;;;;;;10.10;5.72;;;17.10;99.90;;;;;;1735796;83;21308;-81
2021/05/02 05:21:29;;;;;;;15.85;6.15;;;17.20;99.90;;;;;;1735728;82;21304;-81
2021/05/02 05:23:57;;;;;;;13.72;6.25;;;17.20;99.90;;;;;;1735702;83;21127;-81
2021/05/02 05:26:25;;;;;;;12.95;5.25;;;17.20;99.90;;;;;;1735503;83;21153;-82
2021/05/02 05:28:52;;;;;;;11.65;5.60;;;17.30;99.90;;;;;;1735734;82;21299;-82
2021/05/02 05:31:20;;;;;;;11.78;5.00;;;17.30;99.90;;;;;;1735702;83;21735;-79
2021/05/02 05:33:48;;;;;;;15.53;4.17;;;17.40;99.90;;;;;;1735487;81;21134;-81
2021/05/02 05:36:16;;;;;;;13.83;4.33;;;17.40;99.90;;;;;;1735475;82;21143;-82
2021/05/02 05:38:44;;;;;;;12.18;4.70;;;17.50;99.90;;;;;;1735779;83;21301;-81
2021/05/02 05:41:11;;;;;;;11.88;4.75;;;17.60;99.90;;;;;;1736098;83;21463;-82
2021/05/02 05:43:39;;;;;;;14.75;5.67;;;17.80;99.90;;;;;;1735510;83;21155;-81
2021/05/02 05:46:07;;;;;;;16.20;6.17;;;17.90;99.90;;;;;;1735629;83;21154;-81
2021/05/02 05:48:34;;;;;;;14.13;5.62;;;18.00;99.90;;;;;;1735696;83;21203;-81
2021/05/02 05:51:03;;;;;;;14.00;5.47;;;18.20;99.90;;;;;;1735709;83;21174;-81
2021/05/02 05:53:30;;;;;;;12.40;5.58;;;18.20;99.90;;;;;;1735532;83;21162;-81
2021/05/02 05:55:58;;;;;;;15.45;6.50;;;18.30;99.90;;;;;;1735565;81;21169;-81
2021/05/02 05:58:27;;;;;;;15.48;6.20;;;18.40;99.90;;;;;;1735895;83;21304;-81
2021/05/02 06:00:54;;;;;;;13.40;5.80;;;18.30;99.90;;;;;;1735703;82;21304;-80
2021/05/02 06:03:22;;;;;;;13.95;5.60;;;18.40;99.90;;;;;;1735856;83;21146;-80
2021/05/02 06:05:50;;;;;;;15.45;5.83;;;18.40;99.90;;;;;;1735874;82;21292;-81
2021/05/02 06:08:18;;;;;;;15.00;5.65;;;18.40;99.90;;;;;;1735644;82;21308;-81
2021/05/02 06:10:46;;;;;;;11.55;5.33;;;18.40;99.90;;;;;;1735760;83;21599;-81
2021/05/02 06:13:18;;;;;;;16.17;5.78;;;18.50;99.90;;;;;;1735769;83;21324;-80
2021/05/02 06:15:47;;;;;;;16.40;6.28;;;18.50;99.90;;;;;;1735668;83;21155;-81
2021/05/02 06:18:15;;;;;;;12.88;6.30;;;18.50;99.90;;;;;;1735813;83;21296;-80
2021/05/02 06:20:42;;;;;;;15.88;6.50;;;18.50;99.90;;;;;;1735674;82;21333;-80
2021/05/02 06:23:10;;;;;;;14.90;6.60;;;18.50;99.90;;;;;;1735767;83;21300;-80
2021/05/02 06:25:38;;;;;;;14.65;7.45;;;18.50;99.90;;;;;;1735754;83;21704;-80
2021/05/02 06:28:06;;;;;;;12.50;5.80;;;18.50;99.90;;;;;;1735908;83;21726;-79
2021/05/02 06:30:34;;;;;;;12.78;6.30;;;18.60;99.90;;;;;;1735858;82;21300;-80
2021/05/02 06:33:01;;;;;;;19.25;5.87;;;18.60;99.90;;;;;;1735750;83;21340;-80
2021/05/02 06:35:29;;;;;;;14.43;5.55;;;18.70;99.90;;;;;;1731933;81;21178;-81
2021/05/02 06:37:57;;;;;;;15.13;6.12;;;18.80;99.90;;;;;;1727432;83;21601;-80
2021/05/02 06:40:26;;;;;;;15.30;6.47;;;18.90;99.90;;;;;;1727522;83;21593;-80
2021/05/02 06:42:54;;;;;;;16.50;5.87;;;19.00;99.90;;;;;;1727292;83;21257;-80
2021/05/02 06:45:21;;;;;;;14.80;5.95;;;19.10;99.90;;;;;;1727340;83;21448;-79
2021/05/02 06:47:49;;;;;;;14.03;5.67;;;19.20;99.90;;;;;;1727485;83;21150;-79
2021/05/02 06:50:17;;;;;;;16.70;5.85;;;19.30;99.90;;;;;;1727409;83;21606;-79
2021/05/02 06:52:45;;;;;;;12.05;6.17;;;19.30;99.90;;;;;;1727354;82;21139;-79
2021/05/02 06:55:13;;;;;;;16.93;5.25;;;19.40;99.90;;;;;;1727593;83;21158;-79
2021/05/02 06:57:41;;;;;;;13.70;5.53;;;19.40;99.90;;;;;;1727697;83;21178;-80
2021/05/02 07:00:12;;;;;;;11.68;5.15;;;19.40;99.90;;;;;;1727587;83;21158;-79
2021/05/02 07:02:40;;;;;;;11.05;5.47;;;19.40;99.90;;;;;;1727624;83;21561;-79
2021/05/02 07:05:09;;;;;;;15.08;5.83;;;19.30;99.90;;;;;;1727312;83;21312;-80
2021/05/02 07:07:37;;;;;;;13.03;4.58;;;19.50;99.90;;;;;;1727325;83;21154;-79
2021/05/02 07:10:06;;;;;;;14.98;5.33;;;19.50;99.90;;;;;;1727387;83;21577;-79
2021/05/02 07:12:34;;;;;;;11.60;5.28;;;19.50;99.10;;;;;;1727580;83;21191;-79
2021/05/02 07:15:04;;;;;;;14.58;5.22;;;19.50;99.90;;;;;;1727310;83;21174;-79
2021/05/02 07:17:32;;;;;;;16.95;5.53;;;19.50;99.90;;;;;;1727592;83;21162;-79
2021/05/02 07:20:00;;;;;;;14.30;6.53;;;19.50;99.90;;;;;;1727375;83;21596;-80
2021/05/02 07:22:29;;;;;;;15.70;5.78;;;19.50;99.90;;;;;;1727331;82;21153;-79
2021/05/02 07:24:57;;;;;;;12.28;5.70;;;19.60;99.90;;;;;;1727385;83;21135;-79
2021/05/02 07:27:25;;;;;;;15.03;6.22;;;19.60;99.90;;;;;;1727398;83;21127;-79
2021/05/02 07:29:53;;;;;;;20.17;5.80;;;19.60;99.90;;;;;;1727422;83;21174;-79
2021/05/02 07:32:21;;;;;;;14.00;5.47;;;19.60;99.90;;;;;;1727429;83;21158;-79
2021/05/02 07:34:49;;;;;;;12.45;5.60;;;19.70;99.90;;;;;;1727538;83;21546;-79
2021/05/02 07:37:17;;;;;;;14.50;5.20;;;19.70;99.90;;;;;;1735811;83;21293;-79
2021/05/02 07:39:45;;;;;;;14.33;4.80;;;19.80;99.90;;;;;;1735624;83;21130;-80
2021/05/02 07:42:13;;;;;;;13.98;5.22;;;20.00;99.90;;;;;;1736154;83;21177;-79
2021/05/02 07:44:40;;;;;;;8.85;3.40;;;20.10;99.90;;;;;;1735606;82;21156;-79
2021/05/02 07:47:08;;;;;;;12.70;3.70;;;20.20;99.90;;;;;;1735660;83;21323;-79
2021/05/02 07:49:37;;;;;;;13.08;2.80;;;20.40;99.90;;;;;;1735861;83;21190;-79
2021/05/02 07:52:04;;;;;;;9.33;2.17;;;20.50;92.90;;;;;;1735594;82;21308;-79
2021/05/02 07:54:32;;;;;;;5.53;1.85;;;20.60;90.60;;;;;;1735603;82;21347;-79
2021/05/02 07:56:59;;;;;;;8.70;2.40;;;20.70;83.20;;;;;;1735729;82;21292;-79
2021/05/02 07:59:27;;;;;;;10.10;3.15;;;20.70;80.40;;;;;;1735644;82;21742;-79
2021/05/02 08:01:55;;;;;;;7.58;1.95;;;20.70;84.20;;;;;;1735734;83;21711;-79
2021/05/02 08:04:23;;;;;;;8.75;2.00;;;20.90;79.70;;;;;;1735848;82;21312;-79
2021/05/02 08:06:52;;;;;;;8.88;2.00;;;20.90;80.50;;;;;;1735590;83;21158;-79
2021/05/02 08:09:19;;;;;;;5.80;1.85;;;21.00;78.90;;;;;;1735890;83;21190;-79
2021/05/02 08:11:48;;;;;;;7.72;1.70;;;21.00;77.30;;;;;;1735614;83;21280;-79
2021/05/02 08:14:15;;;;;;;7.40;2.00;;;21.10;74.10;;;;;;1735766;82;21300;-79
2021/05/02 08:16:43;;;;;;;8.88;1.72;;;21.50;75.50;;;;;;1735866;83;21178;-78
2021/05/02 08:19:10;;;;;;;5.85;1.67;;;21.80;71.50;;;;;;1735572;83;21174;-79
2021/05/02 08:21:39;;;;;;;8.05;1.60;;;22.00;71.20;;;;;;1735584;83;21153;-79
2021/05/02 08:24:07;;;;;;;9.50;1.80;;;22.10;70.60;;;;;;1735528;82;21166;-78
2021/05/02 08:26:35;;;;;;;8.75;1.92;;;22.30;69.30;;;;;;1735582;82;21139;-79
2021/05/02 08:29:03;;;;;;;8.40;1.85;;;22.50;68.20;;;;;;1735711;82;21194;-79
2021/05/02 08:31:30;;;;;;;5.62;1.80;;;22.70;68.50;;;;;;1735749;83;21295;-79
2021/05/02 08:33:58;;;;;;;9.15;1.65;;;23.20;66.90;;;;;;1735849;83;21181;-79
2021/05/02 08:36:26;;;;;;;8.00;1.40;;;23.70;63.50;;;;;;1730928;82;21181;-78
2021/05/02 08:38:55;;;;;;;12.28;1.70;;;24.20;62.90;;;;;;1727526;83;21174;-79
2021/05/02 08:41:22;;;;;;;6.97;1.77;;;24.40;57.40;;;;;;1727521;82;21166;-79
2021/05/02 08:43:56;;;;;;;9.88;1.60;;;24.60;57.00;;;;;;1727394;82;21664;-79
2021/05/02 08:46:25;;;;;;;8.10;1.70;;;24.80;57.20;;;;;;1727262;83;21285;-79
2021/05/02 08:48:52;;;;;;;12.33;1.80;;;25.20;59.60;;;;;;1727556;83;21155;-79
2021/05/02 08:51:20;;;;;;;9.95;1.57;;;25.00;55.00;;;;;;1727674;83;21174;-79
2021/05/02 08:53:48;;;;;;;10.23;2.08;;;25.30;54.60;;;;;;1727238;83;21309;-79
2021/05/02 08:56:17;;;;;;;10.70;2.10;;;25.20;54.60;;;;;;1727807;82;21169;-79
2021/05/02 08:58:45;;;;;;;10.18;1.80;;;24.90;54.70;;;;;;1727371;83;21159;-78
2021/05/02 09:01:12;;;;;;;10.63;1.42;;;24.60;56.00;;;;;;1727395;83;21154;-78
2021/05/02 09:03:46;;;;;;;9.18;1.57;;;24.20;56.30;;;;;;1727569;83;21167;-79
2021/05/02 09:06:30;;;;;;;11.48;1.87;;;23.90;57.90;;;;;;1727258;83;21321;-79
2021/05/02 09:09:01;;;;;;;8.53;1.87;;;23.70;58.40;;;;;;1726600;83;21308;-78
2021/05/02 09:11:41;;;;;;;10.35;1.57;;;23.70;59.20;;;;;;1727257;83;21151;-79
2021/05/02 09:14:22;;;;;;;12.80;1.90;;;23.60;58.30;;;;;;1727350;83;21150;-79
2021/05/02 09:16:56;;;;;;;6.25;1.50;;;23.80;59.70;;;;;;1727535;83;21155;-79
2021/05/02 09:19:27;;;;;;;11.50;1.80;;;23.80;58.50;;;;;;1727342;83;21178;-79
2021/05/02 09:21:54;;;;;;;8.65;1.85;;;24.00;58.90;;;;;;1727794;83;21558;-79
2021/05/02 09:24:33;;;;;;;8.53;1.70;;;24.10;58.30;;;;;;1727400;83;21643;-78
2021/05/02 09:27:16;;;;;;;18.10;2.35;;;23.90;58.20;;;;;;1727313;83;21609;-79
2021/05/02 09:29:46;;;;;;;9.93;1.60;;;23.60;57.30;;;;;;1727381;83;21747;-80
2021/05/02 09:32:15;;;;;;;9.88;1.60;;;23.40;59.00;;;;;;1727405;83;21162;-79
2021/05/02 09:34:53;;;;;;;10.45;1.62;;;23.30;59.20;;;;;;1727386;83;21139;-80
2021/05/02 09:37:36;;;;;;;10.00;1.65;;;23.10;59.50;;;;;;1727259;83;21617;-80
2021/05/02 09:40:05;;;;;;;12.43;2.85;;;22.90;61.40;;;;;;1727580;83;21166;-80
2021/05/02 09:42:35;;;;;;;11.57;1.70;;;22.80;61.50;;;;;;1727291;83;21181;-79
2021/05/02 09:45:10;;;;;;;12.82;1.80;;;22.80;62.80;;;;;;1727332;83;21605;-79
2021/05/02 09:47:42;;;;;;;10.80;2.00;;;22.70;61.80;;;;;;1727507;83;21199;-79
2021/05/02 09:50:23;;;;;;;11.75;2.00;;;22.60;62.70;;;;;;1727183;83;21604;-79
2021/05/02 09:53:07;;;;;;;10.40;2.20;;;22.60;67.30;;;;;;1727332;82;21146;-79
2021/05/02 09:55:44;;;;;;;12.33;1.87;;;22.40;65.70;;;;;;1727583;83;21154;-80
2021/05/02 09:58:19;;;;;;;9.98;1.47;;;22.30;64.10;;;;;;1727477;83;21147;-79
2021/05/02 10:00:57;;;;;;;11.33;1.62;;;22.30;64.70;;;;;;1727524;83;21142;-79
2021/05/02 10:03:27;;;;;;;9.83;1.82;;;22.30;65.60;;;;;;1727311;83;21585;-79
2021/05/02 10:06:03;;;;;;;9.60;1.70;;;22.40;67.10;;;;;;1727391;82;21594;-79
2021/05/02 10:08:36;;;;;;;9.63;1.40;;;22.30;66.20;;;;;;1727932;83;21561;-80
2021/05/02 10:11:08;;;;;;;9.43;1.60;;;22.30;65.40;;;;;;1727308;83;21192;-80
2021/05/02 10:13:41;;;;;;;10.45;1.60;;;22.50;66.50;;;;;;1727245;83;21300;-80
2021/05/02 10:16:15;;;;;;;12.73;2.10;;;22.60;65.30;;;;;;1727389;83;21123;-80
2021/05/02 10:18:40;;;;;;;8.53;1.87;;;22.70;64.40;;;;;;1726427;83;21572;-80
2021/05/02 10:21:09;;;;;;;9.78;1.95;;;22.80;64.50;;;;;;1727358;83;21170;-80
2021/05/02 10:23:38;;;;;;;9.05;1.70;;;22.90;63.00;;;;;;1727394;83;21174;-80
2021/05/02 10:26:06;;;;;;;9.38;1.82;;;22.90;61.90;;;;;;1727341;83;21162;-80
2021/05/02 10:28:36;;;;;;;7.50;1.52;;;22.90;60.80;;;;;;1727143;83;21170;-80
2021/05/02 10:31:07;;;;;;;15.75;2.02;;;22.90;60.90;;;;;;1727285;83;21161;-80
2021/05/02 10:33:45;;;;;;;12.98;1.80;;;22.80;60.20;;;;;;1727384;82;21167;-80
2021/05/02 10:36:20;;;;;;;;;;;22.70;61.10;;;;;;1731485;81;21194;-80
2021/05/02 10:38:58;;;;;;;11.48;1.60;;;22.70;63.40;;;;;;1735851;82;20248;-81
2021/05/02 10:41:37;;;;;;;10.35;1.60;;;22.50;61.20;;;;;;1735865;82;21292;-80
2021/05/02 10:44:16;;;;;;;11.25;1.98;;;22.50;63.60;;;;;;1735899;82;21731;-81
2021/05/02 10:46:58;;;;;;;9.48;1.50;;;22.40;62.30;;;;;;1735622;82;21155;-79
2021/05/02 10:49:34;;;;;;;11.88;1.57;;;22.30;63.50;;;;;;1735730;82;21296;-79
2021/05/02 10:52:29;;;;;;;10.70;1.87;;;22.20;63.60;;;;;;1735672;83;21293;-80
2021/05/02 10:55:13;;;;;;;10.08;1.92;;;22.20;63.40;;;;;;1735841;83;21699;-80
2021/05/02 10:57:41;;;;;;;10.35;1.90;;;22.10;64.40;;;;;;1735679;82;21127;-79
2021/05/02 11:00:12;;;;;;;14.18;2.10;;;22.10;64.70;;;;;;1735664;82;21155;-81
2021/05/02 11:02:48;;;;;;;12.00;1.90;;;22.00;63.80;;;;;;1736004;82;21174;-80
2021/05/02 11:05:22;;;;;;;13.85;2.12;;;21.90;63.70;;;;;;1735943;83;21308;-80
2021/05/02 11:07:55;;;;;;;11.12;1.95;;;21.90;65.60;;;;;;1735861;82;21163;-80
2021/05/02 11:10:22;;;;;;;15.95;1.85;;;21.80;65.60;;;;;;1735616;82;21311;-79
2021/05/02 11:12:51;;;;;;;6.42;1.40;;;21.80;65.00;;;;;;1735655;83;21131;-80
2021/05/02 11:15:33;;;;;;;10.32;1.52;;;21.30;68.90;;;;;;1735828;83;21730;-80
2021/05/02 11:18:00;;;;;;;8.98;1.60;;;20.90;73.00;;;;;;1735625;82;21146;-79
2021/05/02 11:20:51;;;;;;;8.15;1.40;;;20.70;79.90;;;;;;1736221;83;21174;-79
2021/05/02 11:23:54;;;;;;;13.75;1.75;;;20.50;79.70;;;;;;1735629;82;21296;-78
2021/05/02 11:26:59;;;;;;;8.05;1.22;;;20.20;87.80;;;;;;1731523;82;21305;-79
2021/05/02 11:29:34;;;;;;;11.15;1.60;;;19.90;87.10;;;;;;1735578;83;21174;-79
2021/05/02 11:31:57;;;;;;;12.90;1.80;;;19.80;93.30;;;;;;1734711;83;21131;-79
2021/05/02 11:34:25;;;;;;;9.03;1.57;;;19.70;93.20;;;;;;1735661;83;21771;-79
2021/05/02 11:36:53;;;;;;;7.15;1.30;;;19.60;93.20;;;;;;1732988;82;21332;-78
2021/05/02 11:39:40;;;;;;;13.68;1.50;;;19.60;91.60;;;;;;1727311;83;21127;-79
2021/05/02 11:42:10;;;;;;;16.70;1.57;;;19.70;95.30;;;;;;1727297;83;21163;-79
2021/05/02 11:44:38;;;;;;;7.42;1.22;;;19.80;92.00;;;;;;1727307;83;21159;-78
2021/05/02 11:47:11;;;;;;;8.43;1.35;;;19.80;96.00;;;;;;1727385;83;21617;-78
2021/05/02 11:49:42;;;;;;;14.23;1.52;;;19.90;96.80;;;;;;1727578;83;21119;-78
2021/05/02 11:52:10;;;;;;;11.45;2.50;;;20.00;94.50;;;;;;1727581;83;21131;-78
2021/05/02 11:54:47;;;;;;;9.43;2.20;;;20.10;96.30;;;;;;1727282;83;21183;-79
2021/05/02 11:57:15;;;;;;;10.10;1.60;;;20.20;97.00;;;;;;1727510;83;21154;-79
2021/05/02 11:59:50;;;;;;;10.75;1.70;;;20.40;97.90;;;;;;1727273;83;21881;-79
2021/05/02 12:02:18;;;;;;;;;;;20.50;92.90;;;;;;1729868;83;21147;-78
2021/05/02 12:04:46;;;;;;;7.53;1.30;;;20.60;89.90;;;;;;1727490;83;20152;-80
2021/05/02 12:07:14;;;;;;;7.42;1.30;;;20.70;87.00;;;;;;1727298;82;21190;-79
2021/05/02 12:09:42;;;;;;;7.30;1.50;;;20.80;86.80;;;;;;1727249;83;21195;-79
2021/05/02 12:12:11;;;;;;;6.05;1.32;;;20.90;86.40;;;;;;1727665;83;21127;-79
2021/05/02 12:14:39;;;;;;;7.62;1.35;;;21.00;85.90;;;;;;1727456;83;21177;-79
2021/05/02 12:17:07;;;;;;;9.85;1.80;;;21.10;85.90;;;;;;1727447;83;21585;-79
2021/05/02 12:19:37;;;;;;;13.85;1.70;;;21.10;83.50;;;;;;1727547;82;21589;-79
2021/05/02 12:22:06;;;;;;;10.03;1.40;;;21.20;85.90;;;;;;1727426;83;21158;-79
2021/05/02 12:24:34;;;;;;;10.82;1.52;;;21.30;82.50;;;;;;1727433;82;21561;-80
2021/05/02 12:27:08;;;;;;;9.68;1.52;;;21.30;79.00;;;;;;1727476;83;21166;-79
2021/05/02 12:29:40;;;;;;;8.38;1.67;;;21.30;79.10;;;;;;1707114;83;21210;-79
2021/05/02 12:32:16;;;;;;;12.43;2.33;;;21.40;77.00;;;;;;1727272;83;21248;-79
2021/05/02 12:34:51;;;;;;;7.55;1.40;;;21.50;77.30;;;;;;1727629;83;21123;-79
2021/05/02 12:37:24;;;;;;;6.62;1.42;;;21.60;76.10;;;;;;1730514;83;21151;-79
2021/05/02 12:40:05;;;;;;;9.10;1.60;;;21.70;75.80;;;;;;1735776;83;21292;-79
2021/05/02 12:42:33;;;;;;;10.43;1.90;;;21.80;73.90;;;;;;1734963;82;21603;-79
2021/05/02 12:45:03;;;;;;;7.47;1.40;;;21.80;76.50;;;;;;1735176;82;21158;-79
2021/05/02 12:47:33;;;;;;;6.28;1.37;;;21.90;75.10;;;;;;1735871;83;21147;-80
2021/05/02 12:50:08;;;;;;;8.85;1.50;;;22.00;60.90;;;;;;1734955;82;21635;-80
2021/05/02 12:52:45;;;;;;;5.28;1.05;;;21.90;58.30;;;;;;1735736;83;21320;-80
2021/05/02 12:55:31;;;;;;;9.05;1.47;;;21.90;57.70;;;;;;1734389;82;21210;-79
2021/05/02 12:58:04;;;;;;;9.55;1.95;;;22.00;59.40;;;;;;1735750;83;21715;-79
2021/05/02 13:00:43;;;;;;;11.50;1.60;;;21.90;60.70;;;;;;1735569;83;21169;-80